<?xml version="1.0" encoding="UTF-8" standalone="no" ?>
<gpx xmlns="http://www.topografix.com/GPX/1/1" creator="MapSource 6.11.6" version="1.1" xmlns:xsi="http://www.w3.org/2001/XMLSchema-instance" xsi:schemaLocation="http://www.topografix.com/GPX/1/1 http://www.topografix.com/GPX/1/1/gpx.xsd">

  <metadata>
    <link href="http://www.garmin.com">
      <text>Garmin International</text>
    </link>
    <time>2009-11-20T17:07:00Z</time>
    <bounds maxlat="50.580476" maxlon="6.194981" minlat="50.560467" minlon="6.165499"/>
  </metadata>

  <trk>
    <name>Rundweg- Hohes Venn Tour37728</name>
    <extensions>
      <gpxx:TrackExtension xmlns:gpxx="http://www.garmin.com/xmlschemas/GpxExtensions/v3" xmlns:xsi="http://www.w3.org/2001/XMLSchema-instance" xsi:schemaLocation="http://www.garmin.com/xmlschemas/GpxExtensions/v3 http://www.garmin.com/xmlschemas/GpxExtensions/v3/GpxExtensionsv3.xsd">
        <gpxx:DisplayColor>White</gpxx:DisplayColor>
      </gpxx:TrackExtension>
    </extensions>
    <trkseg>
      <trkpt lat="50.566414" lon="6.187978">
        <ele>620.700000</ele>
        <time>2009-11-20T17:50:04Z</time>
      </trkpt>
      <trkpt lat="50.566677" lon="6.188086">
        <ele>619.200000</ele>
        <time>2009-11-20T17:50:25Z</time>
      </trkpt>
      <trkpt lat="50.566812" lon="6.188943">
        <ele>619.200000</ele>
        <time>2009-11-20T17:51:10Z</time>
      </trkpt>
      <trkpt lat="50.566765" lon="6.190016">
        <ele>616.800000</ele>
        <time>2009-11-20T17:52:05Z</time>
      </trkpt>
      <trkpt lat="50.566795" lon="6.190513">
        <ele>617.800000</ele>
        <time>2009-11-20T17:52:30Z</time>
      </trkpt>
      <trkpt lat="50.566990" lon="6.190912">
        <ele>616.800000</ele>
        <time>2009-11-20T17:52:55Z</time>
      </trkpt>
      <trkpt lat="50.567227" lon="6.191346">
        <ele>614.900000</ele>
        <time>2009-11-20T17:53:24Z</time>
      </trkpt>
      <trkpt lat="50.567083" lon="6.191740">
        <ele>615.900000</ele>
        <time>2009-11-20T17:53:47Z</time>
      </trkpt>
      <trkpt lat="50.567122" lon="6.192138">
        <ele>615.900000</ele>
        <time>2009-11-20T17:54:08Z</time>
      </trkpt>
      <trkpt lat="50.567235" lon="6.192619">
        <ele>615.400000</ele>
        <time>2009-11-20T17:54:34Z</time>
      </trkpt>
      <trkpt lat="50.567280" lon="6.193079">
        <ele>616.300000</ele>
        <time>2009-11-20T17:54:57Z</time>
      </trkpt>
      <trkpt lat="50.567584" lon="6.193105">
        <ele>616.300000</ele>
        <time>2009-11-20T17:55:22Z</time>
      </trkpt>
      <trkpt lat="50.567903" lon="6.193046">
        <ele>616.800000</ele>
        <time>2009-11-20T17:55:47Z</time>
      </trkpt>
      <trkpt lat="50.568271" lon="6.193073">
        <ele>615.400000</ele>
        <time>2009-11-20T17:56:17Z</time>
      </trkpt>
      <trkpt lat="50.568521" lon="6.193401">
        <ele>614.900000</ele>
        <time>2009-11-20T17:56:43Z</time>
      </trkpt>
      <trkpt lat="50.568746" lon="6.193775">
        <ele>614.900000</ele>
        <time>2009-11-20T17:57:09Z</time>
      </trkpt>
      <trkpt lat="50.569012" lon="6.194223">
        <ele>615.400000</ele>
        <time>2009-11-20T17:57:40Z</time>
      </trkpt>
      <trkpt lat="50.569468" lon="6.194981">
        <ele>614.900000</ele>
        <time>2009-11-20T17:58:33Z</time>
      </trkpt>
      <trkpt lat="50.569712" lon="6.194901">
        <ele>615.900000</ele>
        <time>2009-11-20T17:58:53Z</time>
      </trkpt>
      <trkpt lat="50.569937" lon="6.194498">
        <ele>614.900000</ele>
        <time>2009-11-20T17:59:20Z</time>
      </trkpt>
      <trkpt lat="50.570110" lon="6.194161">
        <ele>613.500000</ele>
        <time>2009-11-20T17:59:42Z</time>
      </trkpt>
      <trkpt lat="50.570323" lon="6.194347">
        <ele>613.500000</ele>
        <time>2009-11-20T18:00:01Z</time>
      </trkpt>
      <trkpt lat="50.570601" lon="6.194403">
        <ele>613.500000</ele>
        <time>2009-11-20T18:00:24Z</time>
      </trkpt>
      <trkpt lat="50.570693" lon="6.194207">
        <ele>613.000000</ele>
        <time>2009-11-20T18:00:36Z</time>
      </trkpt>
      <trkpt lat="50.570863" lon="6.193919">
        <ele>612.000000</ele>
        <time>2009-11-20T18:00:56Z</time>
      </trkpt>
      <trkpt lat="50.571160" lon="6.193679">
        <ele>611.500000</ele>
        <time>2009-11-20T18:01:23Z</time>
      </trkpt>
      <trkpt lat="50.571539" lon="6.193538">
        <ele>611.100000</ele>
        <time>2009-11-20T18:01:54Z</time>
      </trkpt>
      <trkpt lat="50.572081" lon="6.193066">
        <ele>608.200000</ele>
        <time>2009-11-20T18:02:43Z</time>
      </trkpt>
      <trkpt lat="50.572257" lon="6.192594">
        <ele>608.200000</ele>
        <time>2009-11-20T18:03:11Z</time>
      </trkpt>
      <trkpt lat="50.572531" lon="6.192207">
        <ele>607.200000</ele>
        <time>2009-11-20T18:03:40Z</time>
      </trkpt>
      <trkpt lat="50.572695" lon="6.191763">
        <ele>605.800000</ele>
        <time>2009-11-20T18:04:07Z</time>
      </trkpt>
      <trkpt lat="50.572830" lon="6.191296">
        <ele>604.300000</ele>
        <time>2009-11-20T18:04:33Z</time>
      </trkpt>
      <trkpt lat="50.572919" lon="6.190828">
        <ele>603.800000</ele>
        <time>2009-11-20T18:04:57Z</time>
      </trkpt>
      <trkpt lat="50.573140" lon="6.190435">
        <ele>602.400000</ele>
        <time>2009-11-20T18:05:24Z</time>
      </trkpt>
      <trkpt lat="50.573327" lon="6.190104">
        <ele>601.000000</ele>
        <time>2009-11-20T18:05:46Z</time>
      </trkpt>
      <trkpt lat="50.573565" lon="6.189779">
        <ele>600.500000</ele>
        <time>2009-11-20T18:06:12Z</time>
      </trkpt>
      <trkpt lat="50.573570" lon="6.189249">
        <ele>599.500000</ele>
        <time>2009-11-20T18:06:38Z</time>
      </trkpt>
      <trkpt lat="50.573751" lon="6.188968">
        <ele>598.600000</ele>
        <time>2009-11-20T18:06:59Z</time>
      </trkpt>
      <trkpt lat="50.573885" lon="6.188482">
        <ele>596.600000</ele>
        <time>2009-11-20T18:07:26Z</time>
      </trkpt>
      <trkpt lat="50.574295" lon="6.187143">
        <ele>594.700000</ele>
        <time>2009-11-20T18:08:41Z</time>
      </trkpt>
      <trkpt lat="50.574478" lon="6.186708">
        <ele>593.300000</ele>
        <time>2009-11-20T18:09:07Z</time>
      </trkpt>
      <trkpt lat="50.574655" lon="6.186237">
        <ele>593.800000</ele>
        <time>2009-11-20T18:09:35Z</time>
      </trkpt>
      <trkpt lat="50.574934" lon="6.185613">
        <ele>592.800000</ele>
        <time>2009-11-20T18:10:14Z</time>
      </trkpt>
      <trkpt lat="50.574932" lon="6.184520">
        <ele>591.800000</ele>
        <time>2009-11-20T18:11:09Z</time>
      </trkpt>
      <trkpt lat="50.574807" lon="6.183622">
        <ele>593.300000</ele>
        <time>2009-11-20T18:11:56Z</time>
      </trkpt>
      <trkpt lat="50.574876" lon="6.182833">
        <ele>588.000000</ele>
        <time>2009-11-20T18:12:36Z</time>
      </trkpt>
      <trkpt lat="50.575088" lon="6.182421">
        <ele>587.000000</ele>
        <time>2009-11-20T18:13:03Z</time>
      </trkpt>
      <trkpt lat="50.575379" lon="6.181555">
        <ele>588.000000</ele>
        <time>2009-11-20T18:13:53Z</time>
      </trkpt>
      <trkpt lat="50.575700" lon="6.181357">
        <ele>588.500000</ele>
        <time>2009-11-20T18:14:20Z</time>
      </trkpt>
      <trkpt lat="50.576047" lon="6.181214">
        <ele>588.900000</ele>
        <time>2009-11-20T18:14:49Z</time>
      </trkpt>
      <trkpt lat="50.576384" lon="6.181092">
        <ele>588.900000</ele>
        <time>2009-11-20T18:15:17Z</time>
      </trkpt>
      <trkpt lat="50.576747" lon="6.180997">
        <ele>588.900000</ele>
        <time>2009-11-20T18:15:46Z</time>
      </trkpt>
      <trkpt lat="50.577023" lon="6.180846">
        <ele>588.900000</ele>
        <time>2009-11-20T18:16:09Z</time>
      </trkpt>
      <trkpt lat="50.577350" lon="6.181047">
        <ele>588.000000</ele>
        <time>2009-11-20T18:16:37Z</time>
      </trkpt>
      <trkpt lat="50.577513" lon="6.181287">
        <ele>587.500000</ele>
        <time>2009-11-20T18:16:55Z</time>
      </trkpt>
      <trkpt lat="50.577725" lon="6.181284">
        <ele>585.600000</ele>
        <time>2009-11-20T18:17:12Z</time>
      </trkpt>
      <trkpt lat="50.577750" lon="6.180744">
        <ele>587.000000</ele>
        <time>2009-11-20T18:17:39Z</time>
      </trkpt>
      <trkpt lat="50.577747" lon="6.179729">
        <ele>589.400000</ele>
        <time>2009-11-20T18:18:31Z</time>
      </trkpt>
      <trkpt lat="50.577778" lon="6.179247">
        <ele>590.400000</ele>
        <time>2009-11-20T18:18:55Z</time>
      </trkpt>
      <trkpt lat="50.577752" lon="6.178672">
        <ele>591.300000</ele>
        <time>2009-11-20T18:19:25Z</time>
      </trkpt>
      <trkpt lat="50.577776" lon="6.178297">
        <ele>591.300000</ele>
        <time>2009-11-20T18:19:44Z</time>
      </trkpt>
      <trkpt lat="50.577784" lon="6.177734">
        <ele>592.800000</ele>
        <time>2009-11-20T18:20:12Z</time>
      </trkpt>
      <trkpt lat="50.577770" lon="6.177235">
        <ele>593.800000</ele>
        <time>2009-11-20T18:20:38Z</time>
      </trkpt>
      <trkpt lat="50.577782" lon="6.176617">
        <ele>593.800000</ele>
        <time>2009-11-20T18:21:09Z</time>
      </trkpt>
      <trkpt lat="50.577828" lon="6.176215">
        <ele>592.300000</ele>
        <time>2009-11-20T18:21:30Z</time>
      </trkpt>
      <trkpt lat="50.577823" lon="6.175725">
        <ele>592.300000</ele>
        <time>2009-11-20T18:21:55Z</time>
      </trkpt>
      <trkpt lat="50.577781" lon="6.175336">
        <ele>592.300000</ele>
        <time>2009-11-20T18:22:15Z</time>
      </trkpt>
      <trkpt lat="50.577631" lon="6.174469">
        <ele>590.900000</ele>
        <time>2009-11-20T18:23:00Z</time>
      </trkpt>
      <trkpt lat="50.577716" lon="6.173973">
        <ele>590.400000</ele>
        <time>2009-11-20T18:23:26Z</time>
      </trkpt>
      <trkpt lat="50.577792" lon="6.173496">
        <ele>588.900000</ele>
        <time>2009-11-20T18:23:51Z</time>
      </trkpt>
      <trkpt lat="50.577928" lon="6.172905">
        <ele>586.100000</ele>
        <time>2009-11-20T18:24:23Z</time>
      </trkpt>
      <trkpt lat="50.578070" lon="6.172405">
        <ele>585.100000</ele>
        <time>2009-11-20T18:24:51Z</time>
      </trkpt>
      <trkpt lat="50.578229" lon="6.171892">
        <ele>583.700000</ele>
        <time>2009-11-20T18:25:20Z</time>
      </trkpt>
      <trkpt lat="50.578394" lon="6.171417">
        <ele>581.700000</ele>
        <time>2009-11-20T18:25:47Z</time>
      </trkpt>
      <trkpt lat="50.578558" lon="6.170912">
        <ele>580.300000</ele>
        <time>2009-11-20T18:26:16Z</time>
      </trkpt>
      <trkpt lat="50.578715" lon="6.170406">
        <ele>579.300000</ele>
        <time>2009-11-20T18:26:44Z</time>
      </trkpt>
      <trkpt lat="50.578855" lon="6.169885">
        <ele>578.400000</ele>
        <time>2009-11-20T18:27:13Z</time>
      </trkpt>
      <trkpt lat="50.579023" lon="6.169449">
        <ele>576.000000</ele>
        <time>2009-11-20T18:27:39Z</time>
      </trkpt>
      <trkpt lat="50.579412" lon="6.169419">
        <ele>576.000000</ele>
        <time>2009-11-20T18:28:10Z</time>
      </trkpt>
      <trkpt lat="50.579657" lon="6.169167">
        <ele>574.500000</ele>
        <time>2009-11-20T18:28:33Z</time>
      </trkpt>
      <trkpt lat="50.579798" lon="6.168683">
        <ele>572.600000</ele>
        <time>2009-11-20T18:29:00Z</time>
      </trkpt>
      <trkpt lat="50.579935" lon="6.168183">
        <ele>570.700000</ele>
        <time>2009-11-20T18:29:28Z</time>
      </trkpt>
      <trkpt lat="50.580019" lon="6.167766">
        <ele>570.200000</ele>
        <time>2009-11-20T18:29:50Z</time>
      </trkpt>
      <trkpt lat="50.580162" lon="6.167337">
        <ele>567.800000</ele>
        <time>2009-11-20T18:30:15Z</time>
      </trkpt>
      <trkpt lat="50.580307" lon="6.166876">
        <ele>565.900000</ele>
        <time>2009-11-20T18:30:41Z</time>
      </trkpt>
      <trkpt lat="50.580476" lon="6.166492">
        <ele>564.900000</ele>
        <time>2009-11-20T18:31:05Z</time>
      </trkpt>
      <trkpt lat="50.580093" lon="6.166632">
        <ele>564.900000</ele>
        <time>2009-11-20T18:31:36Z</time>
      </trkpt>
      <trkpt lat="50.579659" lon="6.166774">
        <ele>564.900000</ele>
        <time>2009-11-20T18:32:11Z</time>
      </trkpt>
      <trkpt lat="50.579284" lon="6.166711">
        <ele>566.400000</ele>
        <time>2009-11-20T18:32:41Z</time>
      </trkpt>
      <trkpt lat="50.578967" lon="6.166660">
        <ele>567.300000</ele>
        <time>2009-11-20T18:33:07Z</time>
      </trkpt>
      <trkpt lat="50.578681" lon="6.166455">
        <ele>568.300000</ele>
        <time>2009-11-20T18:33:32Z</time>
      </trkpt>
      <trkpt lat="50.578358" lon="6.166337">
        <ele>568.800000</ele>
        <time>2009-11-20T18:33:58Z</time>
      </trkpt>
      <trkpt lat="50.578035" lon="6.166209">
        <ele>570.700000</ele>
        <time>2009-11-20T18:34:25Z</time>
      </trkpt>
      <trkpt lat="50.577328" lon="6.166152">
        <ele>572.600000</ele>
        <time>2009-11-20T18:35:22Z</time>
      </trkpt>
      <trkpt lat="50.577030" lon="6.166132">
        <ele>574.500000</ele>
        <time>2009-11-20T18:35:45Z</time>
      </trkpt>
      <trkpt lat="50.576718" lon="6.166102">
        <ele>575.000000</ele>
        <time>2009-11-20T18:36:10Z</time>
      </trkpt>
      <trkpt lat="50.576337" lon="6.166113">
        <ele>576.900000</ele>
        <time>2009-11-20T18:36:41Z</time>
      </trkpt>
      <trkpt lat="50.575970" lon="6.166129">
        <ele>579.300000</ele>
        <time>2009-11-20T18:37:10Z</time>
      </trkpt>
      <trkpt lat="50.575570" lon="6.166109">
        <ele>581.300000</ele>
        <time>2009-11-20T18:37:42Z</time>
      </trkpt>
      <trkpt lat="50.575212" lon="6.166093">
        <ele>583.200000</ele>
        <time>2009-11-20T18:38:11Z</time>
      </trkpt>
      <trkpt lat="50.574954" lon="6.166290">
        <ele>585.600000</ele>
        <time>2009-11-20T18:38:33Z</time>
      </trkpt>
      <trkpt lat="50.574619" lon="6.166179">
        <ele>588.500000</ele>
        <time>2009-11-20T18:39:01Z</time>
      </trkpt>
      <trkpt lat="50.573867" lon="6.166098">
        <ele>594.200000</ele>
        <time>2009-11-20T18:40:01Z</time>
      </trkpt>
      <trkpt lat="50.573574" lon="6.166058">
        <ele>595.700000</ele>
        <time>2009-11-20T18:40:24Z</time>
      </trkpt>
      <trkpt lat="50.573457" lon="6.166051">
        <ele>596.200000</ele>
        <time>2009-11-20T18:40:34Z</time>
      </trkpt>
      <trkpt lat="50.573309" lon="6.166064">
        <ele>598.100000</ele>
        <time>2009-11-20T18:40:46Z</time>
      </trkpt>
      <trkpt lat="50.572324" lon="6.165961">
        <ele>601.900000</ele>
        <time>2009-11-20T18:42:04Z</time>
      </trkpt>
      <trkpt lat="50.571751" lon="6.165931">
        <ele>603.400000</ele>
        <time>2009-11-20T18:42:50Z</time>
      </trkpt>
      <trkpt lat="50.571420" lon="6.165935">
        <ele>603.400000</ele>
        <time>2009-11-20T18:43:17Z</time>
      </trkpt>
      <trkpt lat="50.571095" lon="6.165898">
        <ele>604.300000</ele>
        <time>2009-11-20T18:43:43Z</time>
      </trkpt>
      <trkpt lat="50.570468" lon="6.165841">
        <ele>606.700000</ele>
        <time>2009-11-20T18:44:33Z</time>
      </trkpt>
      <trkpt lat="50.570359" lon="6.165801">
        <ele>605.800000</ele>
        <time>2009-11-20T18:44:42Z</time>
      </trkpt>
      <trkpt lat="50.570357" lon="6.165805">
        <ele>605.800000</ele>
        <time>2009-11-20T18:44:42Z</time>
      </trkpt>
      <trkpt lat="50.570101" lon="6.165804">
        <ele>607.200000</ele>
        <time>2009-11-20T18:45:02Z</time>
      </trkpt>
      <trkpt lat="50.569783" lon="6.165741">
        <ele>607.700000</ele>
        <time>2009-11-20T18:45:28Z</time>
      </trkpt>
      <trkpt lat="50.569427" lon="6.165697">
        <ele>608.200000</ele>
        <time>2009-11-20T18:45:57Z</time>
      </trkpt>
      <trkpt lat="50.569072" lon="6.165691">
        <ele>608.700000</ele>
        <time>2009-11-20T18:46:25Z</time>
      </trkpt>
      <trkpt lat="50.568716" lon="6.165687">
        <ele>610.100000</ele>
        <time>2009-11-20T18:46:53Z</time>
      </trkpt>
      <trkpt lat="50.568367" lon="6.165631">
        <ele>611.100000</ele>
        <time>2009-11-20T18:47:21Z</time>
      </trkpt>
      <trkpt lat="50.567995" lon="6.165628">
        <ele>612.000000</ele>
        <time>2009-11-20T18:47:51Z</time>
      </trkpt>
      <trkpt lat="50.567624" lon="6.165602">
        <ele>613.500000</ele>
        <time>2009-11-20T18:48:21Z</time>
      </trkpt>
      <trkpt lat="50.567268" lon="6.165551">
        <ele>613.000000</ele>
        <time>2009-11-20T18:48:49Z</time>
      </trkpt>
      <trkpt lat="50.566916" lon="6.165559">
        <ele>614.400000</ele>
        <time>2009-11-20T18:49:17Z</time>
      </trkpt>
      <trkpt lat="50.566539" lon="6.165544">
        <ele>615.400000</ele>
        <time>2009-11-20T18:49:47Z</time>
      </trkpt>
      <trkpt lat="50.566188" lon="6.165532">
        <ele>615.900000</ele>
        <time>2009-11-20T18:50:15Z</time>
      </trkpt>
      <trkpt lat="50.565831" lon="6.165499">
        <ele>617.800000</ele>
        <time>2009-11-20T18:50:44Z</time>
      </trkpt>
      <trkpt lat="50.565481" lon="6.165499">
        <ele>619.200000</ele>
        <time>2009-11-20T18:51:12Z</time>
      </trkpt>
      <trkpt lat="50.565308" lon="6.165881">
        <ele>618.700000</ele>
        <time>2009-11-20T18:51:36Z</time>
      </trkpt>
      <trkpt lat="50.565468" lon="6.166370">
        <ele>618.300000</ele>
        <time>2009-11-20T18:52:04Z</time>
      </trkpt>
      <trkpt lat="50.565577" lon="6.166888">
        <ele>617.800000</ele>
        <time>2009-11-20T18:52:31Z</time>
      </trkpt>
      <trkpt lat="50.565668" lon="6.167464">
        <ele>616.300000</ele>
        <time>2009-11-20T18:53:01Z</time>
      </trkpt>
      <trkpt lat="50.565686" lon="6.167887">
        <ele>616.800000</ele>
        <time>2009-11-20T18:53:23Z</time>
      </trkpt>
      <trkpt lat="50.565610" lon="6.168403">
        <ele>615.400000</ele>
        <time>2009-11-20T18:53:50Z</time>
      </trkpt>
      <trkpt lat="50.565332" lon="6.168882">
        <ele>615.400000</ele>
        <time>2009-11-20T18:54:23Z</time>
      </trkpt>
      <trkpt lat="50.565072" lon="6.169142">
        <ele>616.300000</ele>
        <time>2009-11-20T18:54:47Z</time>
      </trkpt>
      <trkpt lat="50.564725" lon="6.169167">
        <ele>617.800000</ele>
        <time>2009-11-20T18:55:15Z</time>
      </trkpt>
      <trkpt lat="50.564362" lon="6.169167">
        <ele>618.700000</ele>
        <time>2009-11-20T18:55:44Z</time>
      </trkpt>
      <trkpt lat="50.564186" lon="6.169159">
        <ele>618.700000</ele>
        <time>2009-11-20T18:55:58Z</time>
      </trkpt>
      <trkpt lat="50.563849" lon="6.169099">
        <ele>620.200000</ele>
        <time>2009-11-20T18:56:25Z</time>
      </trkpt>
      <trkpt lat="50.563479" lon="6.169021">
        <ele>620.700000</ele>
        <time>2009-11-20T18:56:55Z</time>
      </trkpt>
      <trkpt lat="50.563117" lon="6.168758">
        <ele>620.700000</ele>
        <time>2009-11-20T18:57:27Z</time>
      </trkpt>
      <trkpt lat="50.562752" lon="6.168599">
        <ele>620.700000</ele>
        <time>2009-11-20T18:57:57Z</time>
      </trkpt>
      <trkpt lat="50.562380" lon="6.168470">
        <ele>619.200000</ele>
        <time>2009-11-20T18:58:27Z</time>
      </trkpt>
      <trkpt lat="50.562003" lon="6.168340">
        <ele>619.200000</ele>
        <time>2009-11-20T18:58:58Z</time>
      </trkpt>
      <trkpt lat="50.561756" lon="6.168290">
        <ele>619.200000</ele>
        <time>2009-11-20T18:59:18Z</time>
      </trkpt>
      <trkpt lat="50.561695" lon="6.168342">
        <ele>619.200000</ele>
        <time>2009-11-20T18:59:24Z</time>
      </trkpt>
      <trkpt lat="50.561391" lon="6.168600">
        <ele>618.700000</ele>
        <time>2009-11-20T18:59:51Z</time>
      </trkpt>
      <trkpt lat="50.560990" lon="6.168658">
        <ele>618.300000</ele>
        <time>2009-11-20T19:00:23Z</time>
      </trkpt>
      <trkpt lat="50.560697" lon="6.168645">
        <ele>618.300000</ele>
        <time>2009-11-20T19:00:47Z</time>
      </trkpt>
      <trkpt lat="50.560519" lon="6.168940">
        <ele>616.800000</ele>
        <time>2009-11-20T19:01:07Z</time>
      </trkpt>
      <trkpt lat="50.560519" lon="6.168940">
        <ele>617.300000</ele>
        <time>2009-11-20T19:01:07Z</time>
      </trkpt>
      <trkpt lat="50.560528" lon="6.169046">
        <ele>616.300000</ele>
        <time>2009-11-20T19:01:13Z</time>
      </trkpt>
      <trkpt lat="50.560574" lon="6.169610">
        <ele>616.800000</ele>
        <time>2009-11-20T19:01:42Z</time>
      </trkpt>
      <trkpt lat="50.560618" lon="6.170181">
        <ele>617.800000</ele>
        <time>2009-11-20T19:02:11Z</time>
      </trkpt>
      <trkpt lat="50.560659" lon="6.170742">
        <ele>618.700000</ele>
        <time>2009-11-20T19:02:40Z</time>
      </trkpt>
      <trkpt lat="50.560580" lon="6.171385">
        <ele>619.200000</ele>
        <time>2009-11-20T19:03:13Z</time>
      </trkpt>
      <trkpt lat="50.560493" lon="6.171871">
        <ele>619.700000</ele>
        <time>2009-11-20T19:03:38Z</time>
      </trkpt>
      <trkpt lat="50.560467" lon="6.172440">
        <ele>620.200000</ele>
        <time>2009-11-20T19:04:07Z</time>
      </trkpt>
      <trkpt lat="50.560484" lon="6.172931">
        <ele>622.600000</ele>
        <time>2009-11-20T19:04:32Z</time>
      </trkpt>
      <trkpt lat="50.560666" lon="6.173684">
        <ele>622.100000</ele>
        <time>2009-11-20T19:05:13Z</time>
      </trkpt>
      <trkpt lat="50.560780" lon="6.173895">
        <ele>622.600000</ele>
        <time>2009-11-20T19:05:27Z</time>
      </trkpt>
      <trkpt lat="50.561057" lon="6.174124">
        <ele>622.600000</ele>
        <time>2009-11-20T19:05:52Z</time>
      </trkpt>
      <trkpt lat="50.561382" lon="6.174393">
        <ele>623.100000</ele>
        <time>2009-11-20T19:06:21Z</time>
      </trkpt>
      <trkpt lat="50.561463" lon="6.174484">
        <ele>623.100000</ele>
        <time>2009-11-20T19:06:29Z</time>
      </trkpt>
      <trkpt lat="50.561750" lon="6.174807">
        <ele>622.600000</ele>
        <time>2009-11-20T19:06:58Z</time>
      </trkpt>
      <trkpt lat="50.562021" lon="6.175209">
        <ele>623.600000</ele>
        <time>2009-11-20T19:07:27Z</time>
      </trkpt>
      <trkpt lat="50.562122" lon="6.175799">
        <ele>623.100000</ele>
        <time>2009-11-20T19:07:58Z</time>
      </trkpt>
      <trkpt lat="50.562225" lon="6.176404">
        <ele>623.600000</ele>
        <time>2009-11-20T19:08:30Z</time>
      </trkpt>
      <trkpt lat="50.562303" lon="6.176871">
        <ele>623.600000</ele>
        <time>2009-11-20T19:08:54Z</time>
      </trkpt>
      <trkpt lat="50.562369" lon="6.177485">
        <ele>623.600000</ele>
        <time>2009-11-20T19:09:26Z</time>
      </trkpt>
      <trkpt lat="50.562426" lon="6.178023">
        <ele>624.000000</ele>
        <time>2009-11-20T19:09:54Z</time>
      </trkpt>
      <trkpt lat="50.562489" lon="6.178610">
        <ele>624.500000</ele>
        <time>2009-11-20T19:10:24Z</time>
      </trkpt>
      <trkpt lat="50.562550" lon="6.179185">
        <ele>625.000000</ele>
        <time>2009-11-20T19:10:53Z</time>
      </trkpt>
      <trkpt lat="50.562623" lon="6.179867">
        <ele>625.500000</ele>
        <time>2009-11-20T19:11:29Z</time>
      </trkpt>
      <trkpt lat="50.563266" lon="6.180930">
        <ele>625.000000</ele>
        <time>2009-11-20T19:12:43Z</time>
      </trkpt>
      <trkpt lat="50.563266" lon="6.180930">
        <ele>624.000000</ele>
        <time>2009-11-20T19:12:43Z</time>
      </trkpt>
      <trkpt lat="50.564002" lon="6.181709">
        <ele>623.100000</ele>
        <time>2009-11-20T19:13:54Z</time>
      </trkpt>
      <trkpt lat="50.564002" lon="6.181709">
        <ele>621.600000</ele>
        <time>2009-11-20T19:13:54Z</time>
      </trkpt>
      <trkpt lat="50.564134" lon="6.181849">
        <ele>620.200000</ele>
        <time>2009-11-20T19:14:07Z</time>
      </trkpt>
      <trkpt lat="50.564539" lon="6.182524">
        <ele>619.700000</ele>
        <time>2009-11-20T19:14:54Z</time>
      </trkpt>
      <trkpt lat="50.564689" lon="6.183627">
        <ele>620.200000</ele>
        <time>2009-11-20T19:15:51Z</time>
      </trkpt>
      <trkpt lat="50.564689" lon="6.183627">
        <ele>619.700000</ele>
        <time>2009-11-20T19:15:51Z</time>
      </trkpt>
      <trkpt lat="50.564813" lon="6.185031">
        <ele>619.200000</ele>
        <time>2009-11-20T19:17:03Z</time>
      </trkpt>
      <trkpt lat="50.564813" lon="6.185031">
        <ele>619.200000</ele>
        <time>2009-11-20T19:17:03Z</time>
      </trkpt>
      <trkpt lat="50.565511" lon="6.186564">
        <ele>618.300000</ele>
        <time>2009-11-20T19:18:38Z</time>
      </trkpt>
      <trkpt lat="50.565511" lon="6.186564">
        <ele>617.300000</ele>
        <time>2009-11-20T19:18:38Z</time>
      </trkpt>
      <trkpt lat="50.565910" lon="6.187440">
        <ele>616.800000</ele>
        <time>2009-11-20T19:19:33Z</time>
      </trkpt>
      <trkpt lat="50.565910" lon="6.187440">
        <ele>616.300000</ele>
        <time>2009-11-20T19:19:33Z</time>
      </trkpt>
      <trkpt lat="50.566179" lon="6.187902">
        <ele>615.900000</ele>
        <time>2009-11-20T19:20:05Z</time>
      </trkpt>
      <trkpt lat="50.566179" lon="6.187902">
        <ele>615.900000</ele>
        <time>2009-11-20T19:20:05Z</time>
      </trkpt>
    </trkseg>
  </trk>

</gpx>
